createdAt,value
2019-06-20T00:03:10.385Z,19.23
2019-06-20T00:08:13.823Z,18.90
2019-06-20T00:13:17.267Z,18.79
2019-06-20T00:18:20.675Z,18.85
2019-06-20T00:23:24.198Z,19.02
2019-06-20T00:28:27.649Z,19.04
2019-06-20T00:33:31.124Z,19.00
2019-06-20T00:38:34.504Z,18.90
2019-06-20T00:43:37.839Z,18.77
2019-06-20T00:48:41.187Z,18.48
2019-06-20T00:53:44.601Z,18.33
2019-06-20T00:58:48.229Z,18.21
2019-06-20T01:03:51.571Z,18.21
2019-06-20T01:08:54.910Z,18.25
2019-06-20T01:13:58.321Z,18.20
2019-06-20T01:19:01.765Z,18.20
2019-06-20T01:24:05.390Z,18.25
2019-06-20T01:29:08.900Z,18.25
2019-06-20T01:34:12.283Z,18.21
2019-06-20T01:39:15.728Z,18.16
2019-06-20T01:44:19.060Z,18.17
2019-06-20T01:49:22.555Z,18.17
2019-06-20T01:54:25.892Z,17.72
2019-06-20T01:59:29.334Z,17.35
2019-06-20T02:04:32.806Z,17.44
2019-06-20T02:09:36.142Z,18.38
2019-06-20T02:14:39.502Z,18.59
2019-06-20T02:19:42.823Z,19.33
2019-06-20T02:24:46.182Z,19.37
2019-06-20T02:29:49.515Z,19.36
2019-06-20T02:34:52.840Z,19.31
2019-06-20T02:39:56.232Z,19.23
2019-06-20T02:44:59.748Z,19.09
2019-06-20T02:50:03.501Z,18.92
2019-06-20T02:55:07.570Z,18.74
2019-06-20T03:00:12.646Z,18.27
2019-06-20T03:05:16.304Z,17.80
2019-06-20T03:10:19.708Z,17.74
2019-06-20T03:15:23.032Z,17.67
2019-06-20T03:20:26.363Z,17.70
2019-06-20T03:25:29.792Z,17.66
2019-06-20T03:30:33.230Z,17.55
2019-06-20T03:35:36.582Z,17.50
2019-06-20T03:40:39.967Z,17.48
2019-06-20T03:45:43.401Z,17.59
2019-06-20T03:50:47.838Z,17.80
2019-06-20T03:55:51.279Z,17.90
2019-06-20T04:00:55.588Z,17.94
2019-06-20T04:05:58.936Z,17.88
2019-06-20T04:11:02.529Z,17.85
2019-06-20T04:16:07.618Z,17.71
2019-06-20T04:21:10.994Z,17.87
2019-06-20T04:26:14.426Z,17.73
2019-06-20T04:31:17.898Z,17.65
2019-06-20T04:36:21.287Z,17.53
2019-06-20T04:41:25.749Z,17.60
2019-06-20T04:46:30.700Z,17.56
2019-06-20T04:51:34.072Z,17.75
2019-06-20T04:56:37.517Z,17.62
2019-06-20T05:01:40.882Z,17.74
2019-06-20T05:06:46.385Z,17.71
2019-06-20T05:11:49.725Z,17.67
2019-06-20T05:16:53.267Z,17.65
2019-06-20T05:21:56.661Z,17.65
2019-06-20T05:27:00.042Z,17.64
2019-06-20T05:32:03.349Z,17.69
2019-06-20T05:37:06.783Z,17.59
2019-06-20T05:42:11.150Z,17.61
2019-06-20T05:47:14.527Z,17.55
2019-06-20T05:52:17.858Z,17.43
2019-06-20T05:57:22.379Z,17.55
2019-06-20T06:02:25.898Z,17.77
2019-06-20T06:07:29.236Z,17.82
2019-06-20T06:12:32.577Z,17.83
2019-06-20T06:17:36.087Z,17.40
2019-06-20T06:22:39.545Z,17.52
2019-06-20T06:27:42.948Z,17.45
2019-06-20T06:32:46.322Z,17.47
2019-06-20T06:37:49.786Z,17.47
2019-06-20T06:42:53.152Z,18.15
2019-06-20T06:47:56.621Z,18.13
2019-06-20T06:52:59.963Z,18.41
2019-06-20T06:58:03.517Z,18.86
2019-06-20T07:03:07.928Z,18.93
2019-06-20T07:08:11.336Z,19.24
2019-06-20T07:13:14.828Z,19.34
2019-06-20T07:18:18.195Z,19.80
2019-06-20T07:23:21.693Z,19.97
2019-06-20T07:28:25.021Z,19.82
2019-06-20T07:33:28.369Z,20.02
2019-06-20T07:38:31.777Z,20.19
2019-06-20T07:43:35.223Z,20.13
2019-06-20T07:48:38.647Z,20.29
2019-06-20T07:53:42.077Z,20.56
2019-06-20T07:58:45.467Z,20.65
2019-06-20T08:03:48.868Z,20.66
2019-06-20T08:08:52.305Z,20.79
2019-06-20T08:13:55.654Z,21.03
2019-06-20T08:18:59.010Z,20.81
2019-06-20T08:24:02.439Z,21.07
2019-06-20T08:29:18.703Z,21.23
2019-06-20T08:34:10.955Z,21.39
2019-06-20T08:39:14.405Z,21.22
2019-06-20T08:44:17.814Z,21.23
2019-06-20T08:49:21.225Z,21.24
2019-06-20T08:54:24.591Z,21.60
2019-06-20T08:59:27.962Z,21.48
2019-06-20T09:04:31.333Z,21.44
2019-06-20T09:09:34.811Z,21.43
2019-06-20T09:14:38.610Z,21.72
2019-06-20T09:19:42.055Z,21.81
2019-06-20T09:24:45.706Z,21.88
2019-06-20T09:29:49.185Z,22.09
2019-06-20T09:34:53.073Z,22.27
2019-06-20T09:39:57.574Z,22.45
2019-06-20T09:45:01.099Z,22.75
2019-06-20T09:50:09.360Z,22.34
2019-06-20T09:55:12.827Z,22.32
2019-06-20T10:00:19.418Z,22.45
2019-06-20T10:05:22.921Z,22.53
2019-06-20T10:10:28.716Z,22.63
2019-06-20T10:15:35.530Z,23.00
2019-06-20T10:20:39.758Z,23.17
2019-06-20T10:25:43.249Z,23.15
2019-06-20T10:30:46.781Z,23.02
2019-06-20T10:35:50.427Z,23.02
2019-06-20T10:40:54.105Z,22.98
2019-06-20T10:45:57.931Z,23.06
2019-06-20T10:51:19.538Z,23.01
2019-06-20T10:56:22.889Z,23.23
2019-06-20T11:01:26.308Z,23.45
2019-06-20T11:06:29.639Z,23.76
2019-06-20T11:11:32.999Z,23.75
2019-06-20T11:16:36.495Z,23.70
2019-06-20T11:21:41.321Z,24.12
2019-06-20T11:26:46.024Z,24.14
2019-06-20T11:31:49.688Z,24.31
2019-06-20T11:36:53.116Z,24.56
2019-06-20T11:41:56.614Z,24.45
2019-06-20T11:47:00.267Z,24.70
2019-06-20T11:52:03.896Z,25.13
2019-06-20T11:57:07.293Z,24.97
2019-06-20T12:02:10.666Z,24.53
2019-06-20T12:07:14.173Z,24.43
2019-06-20T12:12:17.590Z,25.07
2019-06-20T12:17:20.965Z,25.33
2019-06-20T12:22:24.695Z,24.73
2019-06-20T12:27:28.132Z,24.54
2019-06-20T12:32:31.496Z,24.45
2019-06-20T12:37:34.838Z,24.34
2019-06-20T12:42:40.980Z,24.34
2019-06-20T12:47:43.989Z,24.15
2019-06-20T12:52:47.816Z,24.81
2019-06-20T12:57:52.667Z,24.93
2019-06-20T13:02:56.129Z,25.05
2019-06-20T13:07:59.502Z,25.16
2019-06-20T13:13:02.884Z,25.14
2019-06-20T13:18:06.367Z,25.62
2019-06-20T13:23:09.739Z,25.94
2019-06-20T13:28:13.151Z,25.44
2019-06-20T13:33:16.642Z,25.52
2019-06-20T13:38:19.981Z,26.00
2019-06-20T13:43:23.400Z,25.92
2019-06-20T13:48:26.846Z,25.23
2019-06-20T13:53:30.200Z,26.27
2019-06-20T13:58:33.606Z,25.93
2019-06-20T14:03:36.935Z,26.37
2019-06-20T14:08:42.382Z,25.51
2019-06-20T14:13:49.280Z,27.12
2019-06-20T14:18:50.432Z,26.45
2019-06-20T14:23:53.937Z,26.13
2019-06-20T14:28:57.492Z,25.78
2019-06-20T14:34:00.889Z,26.29
2019-06-20T14:39:06.549Z,26.78
2019-06-20T14:44:09.919Z,26.08
2019-06-20T14:49:13.262Z,26.22
2019-06-20T14:54:19.594Z,26.48
2019-06-20T15:04:39.357Z,26.36
2019-06-20T15:09:42.744Z,25.76
2019-06-20T15:14:47.997Z,26.28
2019-06-20T15:19:51.448Z,25.66
2019-06-20T15:24:55.690Z,25.96
2019-06-20T15:30:00.303Z,26.05
2019-06-20T15:35:08.203Z,25.48
2019-06-20T15:40:11.728Z,25.18
2019-06-20T15:45:15.331Z,24.95
2019-06-20T15:50:19.953Z,25.15
2019-06-20T15:55:23.313Z,24.91
2019-06-20T16:00:26.847Z,24.80
2019-06-20T16:05:30.448Z,22.13
2019-06-20T16:10:33.803Z,20.25
2019-06-20T16:15:37.164Z,18.10
2019-06-20T16:20:40.499Z,17.34
2019-06-20T16:25:43.916Z,17.27
2019-06-20T16:30:47.271Z,17.21
2019-06-20T16:35:50.623Z,17.11
2019-06-20T16:40:54.112Z,17.12
2019-06-20T16:45:57.468Z,17.03
2019-06-20T16:51:01.189Z,16.94
2019-06-20T16:56:04.812Z,17.36
2019-06-20T17:01:08.222Z,16.62
2019-06-20T17:06:11.684Z,16.67
2019-06-20T17:11:15.104Z,16.84
2019-06-20T17:16:18.642Z,16.96
2019-06-20T17:21:22.143Z,16.71
2019-06-20T17:26:26.042Z,17.18
2019-06-20T17:31:29.384Z,17.11
2019-06-20T17:36:32.773Z,16.69
2019-06-20T17:41:36.240Z,16.92
2019-06-20T17:46:39.560Z,17.05
2019-06-20T17:51:42.933Z,17.19
2019-06-20T17:56:46.337Z,17.06
2019-06-20T18:01:49.726Z,16.95
2019-06-20T18:06:53.234Z,17.38
2019-06-20T18:11:56.660Z,16.81
2019-06-20T18:17:00.117Z,17.37
2019-06-20T18:22:03.501Z,17.16
2019-06-20T18:27:07.049Z,17.16
2019-06-20T18:32:10.472Z,17.32
2019-06-20T18:37:27.723Z,17.34
2019-06-20T18:42:19.027Z,17.16
2019-06-20T18:47:22.399Z,17.08
2019-06-20T18:52:25.821Z,17.12
2019-06-20T18:57:29.198Z,17.24
2019-06-20T19:02:32.629Z,17.04
2019-06-20T19:07:36.012Z,17.01
2019-06-20T19:12:39.438Z,16.87
2019-06-20T19:17:42.780Z,16.58
2019-06-20T19:22:46.400Z,16.96
2019-06-20T19:27:49.877Z,16.95
2019-06-20T19:32:53.256Z,17.05
2019-06-20T19:37:56.847Z,17.07
2019-06-20T19:43:00.223Z,16.97
2019-06-20T19:48:03.947Z,16.74
2019-06-20T19:53:07.550Z,17.03
2019-06-20T19:58:10.993Z,16.78
2019-06-20T20:03:14.520Z,16.83
2019-06-20T20:08:18.130Z,16.93
2019-06-20T20:13:21.508Z,16.78
2019-06-20T20:18:25.200Z,16.61
2019-06-20T20:23:28.789Z,16.50
2019-06-20T20:28:32.228Z,16.47
2019-06-20T20:33:36.200Z,16.50
2019-06-20T20:38:39.578Z,16.46
2019-06-20T20:43:43.129Z,16.63
2019-06-20T20:48:47.141Z,16.57
2019-06-20T20:53:50.713Z,16.47
2019-06-20T20:58:54.146Z,16.44
2019-06-20T21:03:57.783Z,16.44
2019-06-20T21:09:01.340Z,16.46
2019-06-20T21:14:04.871Z,16.36
2019-06-20T21:19:08.330Z,16.33
2019-06-20T21:24:11.697Z,16.26
2019-06-20T21:29:15.209Z,16.13
2019-06-20T21:34:18.606Z,16.23
2019-06-20T21:39:22.048Z,16.10
2019-06-20T21:44:25.355Z,16.22
2019-06-20T21:49:28.939Z,16.11
2019-06-20T21:54:32.327Z,16.15
2019-06-20T21:59:35.741Z,16.27
2019-06-20T22:04:53.693Z,16.21
2019-06-20T22:09:44.366Z,16.05
2019-06-20T22:14:47.760Z,16.00
2019-06-20T22:19:51.156Z,16.12
2019-06-20T22:24:54.499Z,16.15
2019-06-20T22:29:57.999Z,16.12
2019-06-20T22:35:01.453Z,16.11
2019-06-20T22:40:09.886Z,15.98
2019-06-20T22:45:14.289Z,16.04
2019-06-20T22:50:17.745Z,16.01
2019-06-20T22:55:21.370Z,16.03
2019-06-20T23:00:24.734Z,15.91
2019-06-20T23:05:28.130Z,15.88
2019-06-20T23:10:31.590Z,15.84
2019-06-20T23:15:34.916Z,15.97
2019-06-20T23:20:38.281Z,15.92
2019-06-20T23:25:43.405Z,15.97
2019-06-20T23:30:46.840Z,15.95
2019-06-20T23:35:50.225Z,15.81
2019-06-20T23:40:53.655Z,15.49
2019-06-20T23:45:57.006Z,15.37
2019-06-20T23:51:00.353Z,15.36
2019-06-20T23:56:07.742Z,15.35
